Time;durP1;ratioP1;P1;durP2;ratioP2;P2;SDS_P1;SDS_P2;PMS_P1;PMS_P2;Temp;Humidity;BMP_temperature;BMP_pressure;BME280_temperature;BME280_humidity;BME280_pressure;Samples;Min_cycle;Max_cycle;Signal;HPM_P1;HPM_P2
2022/02/08 00:00:03;;;;;;;2.95;0.95;;;21.50;47.00;;;;;;4994492;28;20062;-68
2022/02/08 00:02:30;;;;;;;3.20;0.90;;;21.40;46.40;;;;;;5011043;28;20031;-71
2022/02/08 00:04:57;;;;;;;1.88;0.95;;;21.40;47.00;;;;;;4996955;28;20022;-71
2022/02/08 00:07:25;;;;;;;1.75;0.80;;;21.40;47.00;;;;;;4997242;28;20022;-68
2022/02/08 00:09:51;;;;;;;1.58;0.90;;;21.40;46.50;;;;;;5010878;28;20026;-69
2022/02/08 00:12:17;;;;;;;1.70;0.90;;;21.40;46.50;;;;;;4994580;28;21804;-71
2022/02/08 00:14:43;;;;;;;1.60;0.80;;;21.40;46.50;;;;;;4993398;28;20118;-70
2022/02/08 00:17:08;;;;;;;1.65;0.80;;;21.30;46.50;;;;;;5011331;28;20152;-72
2022/02/08 00:19:35;;;;;;;1.83;1.10;;;21.30;46.50;;;;;;4995681;28;20048;-71
2022/02/08 00:22:01;;;;;;;2.92;0.90;;;21.30;46.50;;;;;;5010558;28;20028;-67
2022/02/08 00:24:27;;;;;;;2.03;0.88;;;21.30;46.50;;;;;;4999500;28;20057;-70
2022/02/08 00:26:53;;;;;;;1.60;0.80;;;21.30;46.50;;;;;;5013561;28;22813;-69
2022/02/08 00:29:19;;;;;;;2.50;1.00;;;21.30;46.60;;;;;;4998606;28;20026;-70
2022/02/08 00:31:45;;;;;;;2.13;0.95;;;21.20;46.50;;;;;;5010105;28;20042;-70
2022/02/08 00:34:10;;;;;;;2.17;0.90;;;21.20;46.50;;;;;;4997917;28;20031;-70
2022/02/08 00:36:36;;;;;;;1.60;0.80;;;21.20;46.60;;;;;;5015047;28;20034;-70
2022/02/08 00:39:03;;;;;;;1.08;0.70;;;21.20;46.60;;;;;;4998579;28;20030;-70
2022/02/08 00:41:29;;;;;;;2.47;0.80;;;21.20;46.60;;;;;;4998771;28;20023;-72
2022/02/08 00:46:33;;;;;;;1.00;0.75;;;21.20;46.60;;;;;;4998318;28;20034;-68
2022/02/08 00:49:01;;;;;;;1.58;0.75;;;21.10;46.60;;;;;;4999123;28;20065;-69
2022/02/08 00:51:37;;;;;;;1.20;0.70;;;21.10;46.60;;;;;;4999627;28;20427;-68
2022/02/08 00:54:03;;;;;;;0.88;0.60;;;21.10;46.60;;;;;;4998418;28;20035;-70
2022/02/08 00:56:29;;;;;;;2.28;1.00;;;21.10;46.60;;;;;;4998897;28;20030;-69
2022/02/08 00:58:54;;;;;;;2.13;0.85;;;21.10;46.70;;;;;;4996747;28;20150;-69
2022/02/08 01:01:20;;;;;;;1.83;0.90;;;21.00;46.70;;;;;;4995833;28;20065;-68
2022/02/08 01:03:45;;;;;;;2.33;0.90;;;21.00;46.70;;;;;;4997742;28;20025;-69
2022/02/08 01:06:11;;;;;;;1.73;0.80;;;21.00;46.70;;;;;;4998202;28;20061;-70
2022/02/08 01:08:39;;;;;;;1.48;0.82;;;21.00;46.70;;;;;;4997435;28;20045;-67
2022/02/08 01:11:08;;;;;;;1.88;0.80;;;21.00;46.70;;;;;;4999701;28;20050;-67
2022/02/08 01:13:34;;;;;;;1.67;0.70;;;21.00;46.70;;;;;;4995991;28;20034;-68
2022/02/08 01:16:00;;;;;;;1.60;0.88;;;21.00;47.20;;;;;;4998191;28;20038;-66
2022/02/08 01:18:28;;;;;;;1.23;0.70;;;21.00;46.70;;;;;;4998167;28;20509;-67
2022/02/08 01:20:53;;;;;;;1.73;0.90;;;21.00;46.70;;;;;;4998609;28;20534;-70
2022/02/08 01:23:19;;;;;;;2.10;0.90;;;20.90;47.30;;;;;;4996610;28;20168;-70
2022/02/08 01:25:50;;;;;;;1.45;0.80;;;20.90;46.70;;;;;;4997636;28;20120;-69
2022/02/08 01:28:29;;;;;;;1.65;0.70;;;20.90;46.70;;;;;;4997363;28;20039;-67
2022/02/08 01:30:59;;;;;;;1.90;0.80;;;20.90;46.70;;;;;;4995190;28;20034;-69
2022/02/08 01:38:51;;;;;;;1.30;0.80;;;20.90;46.80;;;;;;5015499;28;20486;-68
2022/02/08 01:44:17;;;;;;;2.08;0.90;;;20.80;46.80;;;;;;4995711;28;20120;-68
2022/02/08 01:51:49;;;;;;;1.33;0.80;;;20.80;46.80;;;;;;4998201;28;20549;-69
2022/02/08 01:54:14;;;;;;;1.35;0.70;;;20.80;46.90;;;;;;4995416;28;20085;-69
2022/02/08 01:56:40;;;;;;;2.10;0.80;;;20.80;46.90;;;;;;5011134;28;20130;-69
2022/02/08 01:59:06;;;;;;;1.30;0.80;;;20.80;46.90;;;;;;4995390;28;20084;-68
2022/02/08 02:01:31;;;;;;;1.67;0.80;;;20.80;46.90;;;;;;4995144;28;20466;-69
2022/02/08 02:03:57;;;;;;;1.58;0.90;;;20.80;46.90;;;;;;5001767;28;20033;-68
2022/02/08 02:06:23;;;;;;;1.27;0.68;;;20.70;46.80;;;;;;4997064;28;20176;-69
2022/02/08 02:08:49;;;;;;;1.45;0.82;;;20.70;46.90;;;;;;4993717;28;20041;-67
2022/02/08 02:11:14;;;;;;;1.50;0.80;;;20.70;46.90;;;;;;4998445;28;20565;-69
2022/02/08 02:13:45;;;;;;;1.95;0.82;;;20.70;46.90;;;;;;4993509;28;20022;-68
2022/02/08 02:16:13;;;;;;;1.83;1.00;;;20.70;46.90;;;;;;5009083;28;20053;-70
2022/02/08 02:18:39;;;;;;;1.60;0.80;;;20.70;46.90;;;;;;4996148;28;20030;-69
2022/02/08 02:21:05;;;;;;;1.23;0.70;;;20.70;47.00;;;;;;4997472;28;20121;-70
2022/02/08 02:23:32;;;;;;;2.15;0.70;;;20.70;47.00;;;;;;4995507;28;20110;-68
2022/02/08 02:25:58;;;;;;;1.63;0.77;;;20.70;47.00;;;;;;4996600;28;20027;-68
2022/02/08 02:28:25;;;;;;;1.08;0.70;;;20.60;46.90;;;;;;4995251;28;20061;-69
2022/02/08 02:30:51;;;;;;;1.38;0.80;;;20.60;47.00;;;;;;4994142;28;20038;-71
2022/02/08 02:33:17;;;;;;;1.58;0.70;;;20.60;47.00;;;;;;4996248;28;20018;-69
2022/02/08 02:35:44;;;;;;;2.05;0.82;;;20.60;47.00;;;;;;4996832;28;20428;-69
2022/02/08 02:38:10;;;;;;;1.42;1.00;;;20.60;47.00;;;;;;4995887;28;20018;-69
2022/02/08 02:40:40;;;;;;;1.15;0.70;;;20.60;47.00;;;;;;4996990;28;20034;-69
2022/02/08 02:43:08;;;;;;;1.73;0.90;;;20.60;47.00;;;;;;4994731;28;20022;-69
2022/02/08 02:45:34;;;;;;;1.65;0.85;;;20.60;47.00;;;;;;4993433;28;20034;-69
2022/02/08 02:47:59;;;;;;;1.33;0.73;;;20.50;47.00;;;;;;4995476;28;20258;-69
2022/02/08 02:50:25;;;;;;;1.20;0.60;;;20.60;47.10;;;;;;4996581;28;20080;-66
2022/02/08 02:52:51;;;;;;;1.45;0.70;;;20.50;47.00;;;;;;4995724;28;20518;-67
2022/02/08 02:55:17;;;;;;;1.27;0.80;;;20.50;47.00;;;;;;4995885;28;20109;-67
2022/02/08 02:57:46;;;;;;;1.73;0.70;;;20.50;47.10;;;;;;4994999;28;20033;-69
2022/02/08 03:00:15;;;;;;;1.67;0.90;;;20.50;47.10;;;;;;5008242;28;20061;-67
2022/02/08 03:18:50;;;;;;;1.40;0.60;;;20.40;47.10;;;;;;4994760;28;20477;-69
2022/02/08 03:21:16;;;;;;;1.67;0.73;;;20.40;47.20;;;;;;4994492;28;20030;-69
2022/02/08 03:23:41;;;;;;;1.23;0.70;;;20.40;47.20;;;;;;4996226;28;20034;-68
2022/02/08 03:26:07;;;;;;;1.40;0.80;;;20.40;47.20;;;;;;4995163;28;20358;-69
2022/02/08 03:28:34;;;;;;;1.00;0.60;;;20.40;47.20;;;;;;4994378;28;20030;-68
2022/02/08 03:31:00;;;;;;;1.35;0.70;;;20.40;47.20;;;;;;4993672;28;20081;-69
2022/02/08 03:33:27;;;;;;;1.63;0.90;;;20.40;47.20;;;;;;5008019;28;20049;-69
2022/02/08 03:35:55;;;;;;;1.33;0.70;;;20.40;47.20;;;;;;4996341;28;20057;-69
2022/02/08 03:38:29;;;;;;;1.35;0.70;;;20.40;47.20;;;;;;4995347;28;20050;-69
2022/02/08 03:40:56;;;;;;;1.60;0.80;;;20.30;47.20;;;;;;4996366;28;20494;-69
2022/02/08 03:45:52;;;;;;;1.23;0.60;;;20.30;47.30;;;;;;4994397;28;20484;-67
2022/02/08 03:48:21;;;;;;;1.25;0.63;;;20.40;47.30;;;;;;4994296;28;20026;-68
2022/02/08 03:50:52;;;;;;;1.23;0.70;;;20.30;47.30;;;;;;4996401;28;20030;-69
2022/02/08 03:53:19;;;;;;;1.25;0.80;;;20.30;47.30;;;;;;4995005;28;20316;-69
2022/02/08 03:55:46;;;;;;;1.40;0.80;;;20.30;47.30;;;;;;4995471;28;20042;-68
2022/02/08 03:58:12;;;;;;;1.42;0.70;;;20.30;47.30;;;;;;4997065;28;20038;-69
2022/02/08 04:00:53;;;;;;;1.52;0.80;;;20.30;47.30;;;;;;4997210;28;20433;-68
2022/02/08 04:03:19;;;;;;;1.25;0.73;;;20.30;47.30;;;;;;4998116;28;20057;-69
2022/02/08 04:05:48;;;;;;;1.10;0.63;;;20.30;47.30;;;;;;4998020;28;20037;-68
2022/02/08 04:08:16;;;;;;;0.88;0.70;;;20.30;47.40;;;;;;4998815;28;20024;-69
2022/02/08 04:10:43;;;;;;;1.33;0.90;;;20.30;47.40;;;;;;4999521;28;20033;-67
2022/02/08 04:13:26;;;;;;;1.35;0.68;;;20.30;47.40;;;;;;4998186;28;20449;-69
2022/02/08 04:35:01;;;;;;;1.30;0.70;;;20.20;47.40;;;;;;4998285;28;20304;-68
2022/02/08 04:45:06;;;;;;;0.75;0.60;;;20.20;47.50;;;;;;4997270;28;20180;-71
2022/02/08 04:47:42;;;;;;;1.02;0.60;;;20.20;47.50;;;;;;4997324;28;20528;-70
2022/02/08 04:50:09;;;;;;;1.00;0.70;;;20.20;47.50;;;;;;5013628;28;20037;-71
2022/02/08 04:52:35;;;;;;;1.05;0.70;;;20.10;47.40;;;;;;4997430;28;20041;-68
2022/02/08 05:48:25;;;;;;;0.95;0.63;;;20.00;47.70;;;;;;4993705;28;20626;-69
2022/02/08 05:51:13;;;;;;;1.08;0.70;;;20.00;47.70;;;;;;5012311;28;20037;-69
2022/02/08 05:53:43;;;;;;;1.23;0.77;;;20.00;47.70;;;;;;4995714;28;21681;-70
2022/02/08 05:56:09;;;;;;;1.00;0.68;;;20.00;47.70;;;;;;4995351;28;20123;-67
2022/02/08 05:58:35;;;;;;;1.10;0.60;;;20.00;47.70;;;;;;4995911;28;20034;-68
2022/02/08 06:01:01;;;;;;;1.27;0.65;;;20.00;47.80;;;;;;4996808;28;20119;-69
2022/02/08 06:03:26;;;;;;;1.13;0.60;;;20.00;47.80;;;;;;4996913;28;20068;-68
2022/02/08 06:05:52;;;;;;;1.08;0.60;;;20.00;47.80;;;;;;5001265;28;20038;-68
2022/02/08 06:08:18;;;;;;;1.17;0.60;;;20.00;47.80;;;;;;4997931;28;20033;-68
2022/02/08 06:10:55;;;;;;;1.27;0.63;;;20.00;48.40;;;;;;4994784;28;20113;-67
2022/02/08 06:13:21;;;;;;;1.00;0.60;;;20.00;47.90;;;;;;5009116;28;20034;-67
2022/02/08 06:15:50;;;;;;;0.82;0.57;;;20.00;47.90;;;;;;4994485;28;20026;-69
2022/02/08 06:18:16;;;;;;;0.90;0.65;;;20.00;47.90;;;;;;4995423;28;20080;-66
2022/02/08 06:20:42;;;;;;;1.48;0.70;;;20.00;47.90;;;;;;4995351;28;20065;-69
2022/02/08 06:23:07;;;;;;;0.70;0.63;;;20.00;48.00;;;;;;4996961;28;20034;-69
2022/02/08 06:25:33;;;;;;;1.08;0.57;;;20.00;48.00;;;;;;4994925;28;20050;-69
2022/02/08 06:27:59;;;;;;;1.15;0.57;;;20.00;48.00;;;;;;4994954;28;20109;-72
2022/02/08 06:30:25;;;;;;;1.73;0.80;;;20.00;48.40;;;;;;4992992;28;20134;-70
2022/02/08 06:32:56;;;;;;;1.10;0.52;;;20.00;49.10;;;;;;4994755;28;20503;-69
2022/02/08 06:35:27;;;;;;;0.75;0.57;;;20.00;49.10;;;;;;5009719;28;20427;-67
2022/02/08 06:37:53;;;;;;;0.68;0.50;;;20.00;49.10;;;;;;4996258;28;20018;-69
2022/02/08 06:40:19;;;;;;;1.33;0.70;;;20.00;48.70;;;;;;4996973;28;20033;-69
2022/02/08 06:42:45;;;;;;;0.95;0.63;;;20.00;48.60;;;;;;5011078;28;20109;-69
2022/02/08 06:45:14;;;;;;;1.05;0.70;;;20.00;48.60;;;;;;5008797;28;20033;-69
2022/02/08 06:47:42;;;;;;;0.88;0.65;;;19.90;48.50;;;;;;4995305;28;20030;-69
2022/02/08 06:50:10;;;;;;;1.35;0.80;;;20.00;48.50;;;;;;5001837;28;20045;-65
2022/02/08 06:52:35;;;;;;;1.52;0.70;;;19.90;48.40;;;;;;4996286;28;20026;-69
2022/02/08 06:55:03;;;;;;;1.70;0.70;;;19.90;48.40;;;;;;5010130;28;20025;-66
2022/02/08 06:57:30;;;;;;;1.13;0.70;;;20.00;48.40;;;;;;4995894;28;20510;-65
2022/02/08 07:00:02;;;;;;;1.10;0.70;;;19.90;48.30;;;;;;5009641;28;20054;-69
2022/02/08 07:02:28;;;;;;;2.83;0.80;;;19.90;48.40;;;;;;5009210;28;20132;-69
2022/02/08 07:04:53;;;;;;;1.40;0.80;;;19.90;48.30;;;;;;4995451;28;20533;-69
2022/02/08 07:07:19;;;;;;;1.58;0.80;;;19.90;48.20;;;;;;4996277;28;20156;-68
2022/02/08 07:09:46;;;;;;;1.58;0.77;;;19.90;48.30;;;;;;4995829;28;20030;-69
2022/02/08 07:12:12;;;;;;;2.63;0.80;;;19.90;48.30;;;;;;4995578;28;20131;-69
2022/02/08 07:14:38;;;;;;;1.65;0.90;;;19.90;48.30;;;;;;4992967;28;20062;-69
2022/02/08 07:17:04;;;;;;;2.00;0.70;;;19.90;48.30;;;;;;4994696;28;20056;-69
2022/02/08 07:19:30;;;;;;;1.42;0.70;;;19.90;48.30;;;;;;4995558;28;20382;-66
2022/02/08 07:21:55;;;;;;;1.95;0.80;;;19.90;48.30;;;;;;4996470;28;20527;-69
2022/02/08 07:24:21;;;;;;;1.20;0.77;;;19.90;48.30;;;;;;4995527;28;20026;-66
2022/02/08 07:26:50;;;;;;;2.60;0.80;;;19.90;48.30;;;;;;4995085;28;20870;-69
2022/02/08 07:29:16;;;;;;;;;;;19.90;48.30;;;;;;4995021;28;20022;-66
2022/02/08 07:31:51;;;;;;;1.20;0.70;;;19.90;48.20;;;;;;4994968;28;20432;-69
2022/02/08 07:39:27;;;;;;;2.05;0.80;;;19.90;48.30;;;;;;5000226;28;20026;-65
2022/02/08 07:41:52;;;;;;;1.98;0.90;;;19.80;48.70;;;;;;5000178;28;20026;-69
2022/02/08 07:44:18;;;;;;;1.95;0.90;;;19.80;48.30;;;;;;4998051;28;20117;-69
2022/02/08 07:46:44;;;;;;;2.60;1.02;;;19.80;48.20;;;;;;4997440;28;20065;-70
2022/02/08 07:49:10;;;;;;;1.90;0.85;;;19.80;48.20;;;;;;4998478;28;20101;-67
2022/02/08 07:51:38;;;;;;;3.03;1.25;;;19.80;48.20;;;;;;5000347;28;20034;-69
2022/02/08 07:54:05;;;;;;;1.95;0.80;;;19.80;48.20;;;;;;4998369;28;20018;-70
2022/02/08 07:56:31;;;;;;;1.83;0.90;;;19.80;48.20;;;;;;4998950;28;20061;-69
2022/02/08 07:58:57;;;;;;;2.40;0.80;;;19.80;48.20;;;;;;4997827;28;20112;-69
2022/02/08 08:01:22;;;;;;;2.47;0.80;;;19.80;48.20;;;;;;4997858;28;20046;-70
2022/02/08 08:03:49;;;;;;;2.67;0.90;;;19.80;48.30;;;;;;5012377;28;20307;-69
2022/02/08 08:06:16;;;;;;;1.77;0.77;;;19.80;48.30;;;;;;5013670;28;20064;-69
2022/02/08 08:08:43;;;;;;;1.20;0.70;;;19.80;48.20;;;;;;5004192;28;20038;-69
2022/02/08 08:11:15;;;;;;;1.55;0.77;;;19.80;48.30;;;;;;4999377;28;20534;-69
2022/02/08 08:13:47;;;;;;;1.48;0.73;;;19.80;48.30;;;;;;4996831;28;20508;-70
2022/02/08 08:16:22;;;;;;;2.10;0.80;;;19.80;48.30;;;;;;4996415;28;20049;-69
2022/02/08 08:19:01;;;;;;;1.67;0.90;;;19.80;48.30;;;;;;4998329;28;20030;-66
2022/02/08 08:21:27;;;;;;;1.02;0.60;;;19.80;48.30;;;;;;4999432;28;20030;-69
2022/02/08 08:23:53;;;;;;;2.47;0.90;;;19.80;48.30;;;;;;4997600;28;20022;-69
2022/02/08 08:26:20;;;;;;;1.85;0.95;;;19.80;48.30;;;;;;4997986;28;20034;-65
2022/02/08 08:28:45;;;;;;;1.45;0.80;;;19.80;48.30;;;;;;4996703;28;20305;-69
2022/02/08 08:31:11;;;;;;;1.90;0.75;;;19.80;48.30;;;;;;4996990;28;20444;-69
2022/02/08 08:33:37;;;;;;;2.08;0.90;;;19.80;48.30;;;;;;4996117;28;20045;-69
2022/02/08 08:36:03;;;;;;;1.95;0.80;;;19.80;48.30;;;;;;4998941;28;20030;-69
2022/02/08 08:38:33;;;;;;;2.42;0.88;;;19.80;48.30;;;;;;4998309;28;20583;-69
2022/02/08 08:54:08;;;;;;;1.55;0.80;;;19.80;48.30;;;;;;4997347;28;20117;-66
2022/02/08 08:56:35;;;;;;;1.52;0.70;;;19.70;48.20;;;;;;4998177;28;20091;-69
2022/02/08 08:59:02;;;;;;;2.17;0.90;;;19.80;48.30;;;;;;4996466;28;20184;-66
2022/02/08 09:01:28;;;;;;;1.20;0.70;;;19.80;48.30;;;;;;4994802;28;20049;-69
2022/02/08 09:03:54;;;;;;;2.28;0.85;;;19.80;48.30;;;;;;4996145;28;20041;-67
2022/02/08 09:06:20;;;;;;;1.75;0.85;;;19.70;48.20;;;;;;5003068;28;20022;-69
2022/02/08 09:08:45;;;;;;;2.03;0.80;;;19.80;48.30;;;;;;4997298;28;20046;-69
2022/02/08 09:29:55;;;;;;;1.50;0.80;;;19.80;48.30;;;;;;4995635;28;20145;-69
2022/02/08 09:32:32;;;;;;;1.83;0.85;;;19.70;48.20;;;;;;4996284;28;20033;-69
2022/02/08 09:34:58;;;;;;;1.52;0.77;;;19.70;48.20;;;;;;4997262;28;20555;-70
2022/02/08 09:37:24;;;;;;;1.13;0.70;;;19.70;48.20;;;;;;4998206;28;20072;-69
2022/02/08 09:39:51;;;;;;;1.55;0.88;;;19.70;48.20;;;;;;4997912;28;20866;-69
2022/02/08 09:42:18;;;;;;;2.00;0.90;;;19.70;48.30;;;;;;4995530;28;20038;-69
2022/02/08 09:44:44;;;;;;;1.75;0.80;;;19.70;48.20;;;;;;4994883;28;20522;-70
2022/02/08 09:47:14;;;;;;;1.73;0.75;;;19.70;48.20;;;;;;4995912;28;20108;-69
2022/02/08 09:49:50;;;;;;;1.45;0.70;;;19.70;48.20;;;;;;4995071;28;20034;-65
2022/02/08 09:52:17;;;;;;;1.77;0.80;;;19.70;48.30;;;;;;4998165;28;20022;-69
2022/02/08 09:54:43;;;;;;;2.13;1.00;;;19.80;48.30;;;;;;4996300;28;20058;-69
2022/02/08 09:57:11;;;;;;;1.27;0.80;;;19.70;48.30;;;;;;4996926;28;20066;-66
2022/02/08 09:59:37;;;;;;;2.13;0.70;;;19.70;48.30;;;;;;4995042;28;20439;-69
2022/02/08 10:02:03;;;;;;;1.92;0.80;;;19.70;48.30;;;;;;4995996;28;20441;-69
2022/02/08 10:04:29;;;;;;;2.55;0.85;;;19.80;48.30;;;;;;4996673;28;20018;-69
2022/02/08 10:06:55;;;;;;;1.30;0.70;;;19.80;48.30;;;;;;4998462;28;20033;-69
2022/02/08 10:09:31;;;;;;;0.90;0.70;;;19.70;48.30;;;;;;4996863;28;20022;-69
2022/02/08 10:11:58;;;;;;;1.52;0.80;;;19.70;48.30;;;;;;4996433;28;20030;-66
2022/02/08 10:22:35;;;;;;;1.67;0.80;;;19.80;48.30;;;;;;4995367;28;20248;-69
2022/02/08 10:25:05;;;;;;;1.60;0.80;;;19.70;48.30;;;;;;4995294;28;20501;-65
2022/02/08 10:37:37;;;;;;;2.10;0.80;;;19.70;48.30;;;;;;4994806;28;20510;-69
2022/02/08 10:38:13;;;;;;;1.23;0.60;;;19.70;48.30;;;;;;4997391;28;20117;-67
2022/02/08 10:40:39;;;;;;;1.40;0.70;;;19.70;48.30;;;;;;4996451;28;20125;-70
2022/02/08 10:43:11;;;;;;;1.40;0.65;;;19.80;48.40;;;;;;4995337;28;20080;-69
2022/02/08 10:45:39;;;;;;;1.63;0.77;;;19.70;48.30;;;;;;4993287;28;20038;-69
2022/02/08 10:48:11;;;;;;;1.90;0.80;;;19.80;48.30;;;;;;4994719;28;20028;-69
2022/02/08 10:50:47;;;;;;;1.00;0.70;;;19.80;48.40;;;;;;4995116;28;20104;-69
2022/02/08 10:53:15;;;;;;;1.38;0.70;;;19.80;48.40;;;;;;4994219;28;20033;-68
2022/02/08 10:55:50;;;;;;;1.10;0.70;;;19.80;48.40;;;;;;4994512;28;20347;-65
2022/02/08 10:58:54;;;;;;;1.25;0.77;;;19.80;48.40;;;;;;4993873;28;20061;-66
2022/02/08 11:01:14;;;;;;;1.65;0.80;;;19.80;48.30;;;;;;4993910;28;20136;-67
2022/02/08 11:03:50;;;;;;;1.27;0.80;;;19.80;48.30;;;;;;4994136;28;20033;-65
2022/02/08 11:12:27;;;;;;;;;;;19.80;48.30;;;;;;4995941;28;20057;-70
2022/02/08 11:14:38;;;;;;;1.52;0.73;;;19.80;48.30;;;;;;4990720;28;20300;-69
2022/02/08 11:25:09;;;;;;;0.93;0.60;;;19.80;48.30;;;;;;4995249;28;20034;-69
2022/02/08 11:27:46;;;;;;;0.80;0.70;;;19.80;48.30;;;;;;4995797;28;20026;-69
2022/02/08 11:30:17;;;;;;;1.20;0.68;;;19.80;48.30;;;;;;4992702;28;20030;-69
2022/02/08 11:33:28;;;;;;;1.00;0.60;;;19.80;48.40;;;;;;5000887;28;20030;-66
2022/02/08 11:44:07;;;;;;;1.02;0.70;;;19.80;48.40;;;;;;4995491;28;20038;-66
2022/02/08 11:51:55;;;;;;;1.35;0.65;;;19.80;48.50;;;;;;4991885;28;20070;-69
2022/02/08 11:59:27;;;;;;;1.35;0.80;;;19.80;48.40;;;;;;4992298;28;20537;-69
2022/02/08 12:35:20;;;;;;;1.27;0.70;;;19.90;49.30;;;;;;4997149;28;20030;-69
2022/02/08 12:54:46;;;;;;;1.20;0.70;;;20.20;49.80;;;;;;5003260;28;20152;-64
2022/02/08 12:57:28;;;;;;;0.60;0.50;;;20.30;50.00;;;;;;4999078;28;20033;-64
2022/02/08 14:23:24;;;;;;;1.65;0.90;;;21.20;47.60;;;;;;4995010;28;20033;-69
2022/02/08 15:09:28;;;;;;;2.00;0.90;;;21.50;47.30;;;;;;4995676;28;20590;-70
2022/02/08 15:14:28;;;;;;;2.22;0.90;;;21.50;47.30;;;;;;4994374;28;20106;-71
2022/02/08 15:16:54;;;;;;;1.45;0.77;;;21.50;47.20;;;;;;5008511;28;20030;-73
2022/02/08 15:19:19;;;;;;;1.48;0.90;;;21.50;47.20;;;;;;4993619;28;20053;-70
2022/02/08 15:21:45;;;;;;;1.65;0.90;;;21.50;47.30;;;;;;4995815;28;20022;-69
2022/02/08 15:24:13;;;;;;;1.48;0.80;;;21.50;47.20;;;;;;4992004;28;20030;-68
2022/02/08 15:26:45;;;;;;;1.95;0.80;;;21.50;47.20;;;;;;4992971;28;20309;-68
2022/02/08 15:29:12;;;;;;;2.63;0.98;;;21.50;47.20;;;;;;4993461;28;20023;-68
2022/02/08 15:31:38;;;;;;;2.28;0.90;;;21.50;47.10;;;;;;4992492;28;20042;-69
2022/02/08 15:34:03;;;;;;;1.25;0.73;;;21.60;47.20;;;;;;4992511;28;20308;-70
2022/02/08 15:36:30;;;;;;;2.35;0.80;;;21.60;47.10;;;;;;4993009;28;20034;-69
2022/02/08 15:39:01;;;;;;;1.65;0.80;;;21.60;47.40;;;;;;4993572;28;20455;-73
2022/02/08 15:41:27;;;;;;;2.38;1.02;;;21.60;47.10;;;;;;4995900;28;20061;-71
2022/02/08 15:43:53;;;;;;;2.17;1.00;;;21.60;47.10;;;;;;4993442;28;20395;-73
2022/02/08 15:46:25;;;;;;;1.73;0.90;;;21.60;47.10;;;;;;4994102;28;20487;-69
2022/02/08 15:48:53;;;;;;;2.25;0.90;;;21.60;47.10;;;;;;5010398;28;20049;-71
2022/02/08 15:51:27;;;;;;;2.33;0.90;;;21.70;47.10;;;;;;5013029;28;20037;-71
2022/02/08 16:07:04;;;;;;;1.35;0.80;;;21.70;46.90;;;;;;5000595;28;20048;-73
2022/02/08 16:09:38;;;;;;;1.42;0.77;;;21.70;47.00;;;;;;4999586;28;20034;-69
2022/02/08 16:12:26;;;;;;;1.60;0.80;;;21.70;46.90;;;;;;5001202;28;20029;-69
2022/02/08 16:15:13;;;;;;;1.13;0.70;;;21.70;47.00;;;;;;4996158;28;20084;-68
2022/02/08 16:18:19;;;;;;;2.45;1.02;;;21.70;47.00;;;;;;4997129;28;20121;-72
2022/02/08 16:26:10;;;;;;;2.42;0.98;;;21.70;46.80;;;;;;5000986;28;20044;-69
2022/02/08 16:28:51;;;;;;;;;;;21.80;46.90;;;;;;4996239;28;20497;-71
2022/02/08 16:45:57;;;;;;;2.05;0.90;;;21.80;47.00;;;;;;4998300;28;20099;-71
2022/02/08 17:00:31;;;;;;;1.85;0.90;;;21.60;47.20;;;;;;5007528;28;20093;-71
2022/02/08 17:03:03;;;;;;;1.88;0.90;;;21.70;47.30;;;;;;5010181;28;20777;-66
2022/02/08 17:05:29;;;;;;;1.63;0.73;;;21.60;47.20;;;;;;5004959;28;20058;-70
2022/02/08 17:07:55;;;;;;;1.35;0.70;;;21.60;47.20;;;;;;5007224;28;20033;-71
2022/02/08 17:10:35;;;;;;;2.25;0.88;;;21.60;47.30;;;;;;5000908;28;20498;-68
2022/02/08 17:47:51;;;;;;;2.90;0.95;;;21.70;47.10;;;;;;4997076;28;20061;-71
2022/02/08 17:50:18;;;;;;;1.30;0.80;;;21.70;47.10;;;;;;4996937;28;20045;-71
2022/02/08 17:52:46;;;;;;;2.15;0.90;;;21.80;47.20;;;;;;4997385;28;20033;-68
2022/02/08 17:55:14;;;;;;;1.63;0.80;;;21.80;47.80;;;;;;5000970;28;20140;-69
2022/02/08 17:57:41;;;;;;;1.45;0.60;;;21.80;47.30;;;;;;5000765;28;20045;-71
2022/02/08 18:00:09;;;;;;;2.17;0.80;;;21.80;47.30;;;;;;4995068;28;20030;-70
2022/02/08 18:02:35;;;;;;;1.27;0.77;;;21.80;47.30;;;;;;4997762;28;20033;-67
2022/02/08 18:05:02;;;;;;;1.65;0.70;;;21.80;47.30;;;;;;4996222;28;20466;-72
2022/02/08 18:07:28;;;;;;;1.63;0.85;;;21.80;47.30;;;;;;4999458;28;20033;-68
2022/02/08 18:09:55;;;;;;;1.38;0.70;;;21.80;47.40;;;;;;4998756;28;20692;-70
2022/02/08 18:12:24;;;;;;;1.80;0.80;;;21.80;47.30;;;;;;4998647;28;20934;-70
2022/02/08 18:14:52;;;;;;;1.42;0.90;;;21.80;47.40;;;;;;4996152;28;20036;-68
2022/02/08 18:17:24;;;;;;;1.10;0.73;;;21.80;47.40;;;;;;4994540;28;20129;-69
2022/02/08 18:19:59;;;;;;;1.02;0.70;;;21.80;47.30;;;;;;4998161;28;20083;-71
2022/02/08 18:23:16;;;;;;;1.40;0.80;;;21.80;47.40;;;;;;5008048;28;20137;-71
2022/02/08 18:25:35;;;;;;;1.47;0.80;;;21.80;47.40;;;;;;5005354;28;20034;-70
2022/02/08 19:09:36;;;;;;;1.42;0.80;;;21.80;47.80;;;;;;5025121;28;20803;-71
2022/02/08 19:20:33;;;;;;;1.52;0.80;;;21.80;47.90;;;;;;4996415;28;20084;-69
2022/02/08 19:22:59;;;;;;;1.17;0.75;;;21.70;47.80;;;;;;4995551;28;20022;-70
2022/02/08 19:25:25;;;;;;;2.97;0.98;;;21.80;47.90;;;;;;4997186;28;20037;-69
2022/02/08 19:27:51;;;;;;;2.13;0.80;;;21.80;48.00;;;;;;4999352;28;20539;-67
2022/02/08 19:30:17;;;;;;;3.33;0.90;;;21.80;47.90;;;;;;5000112;28;20138;-71
2022/02/08 19:32:43;;;;;;;3.00;1.00;;;21.80;48.00;;;;;;4999486;28;20047;-70
2022/02/08 19:35:12;;;;;;;2.58;0.90;;;21.90;48.10;;;;;;5007090;28;20034;-68
2022/02/08 19:37:38;;;;;;;3.17;0.73;;;21.90;48.20;;;;;;5007308;28;20486;-70
2022/02/08 19:40:06;;;;;;;2.45;0.90;;;21.90;48.10;;;;;;5000847;28;20042;-70
2022/02/08 19:42:36;;;;;;;1.63;0.70;;;21.90;48.00;;;;;;5003041;28;20021;-69
2022/02/08 19:45:12;;;;;;;1.80;0.70;;;21.90;48.00;;;;;;4999920;28;20276;-67
2022/02/08 19:47:38;;;;;;;2.80;0.90;;;21.90;47.90;;;;;;5001936;28;20029;-69
2022/02/08 19:50:05;;;;;;;2.13;0.73;;;21.90;47.80;;;;;;5001619;28;20040;-70
2022/02/08 19:52:32;;;;;;;3.92;1.20;;;22.00;47.80;;;;;;5003242;28;20642;-67
2022/02/08 19:57:43;;;;;;;6.22;2.70;;;21.90;47.80;;;;;;5001474;28;20079;-69
2022/02/08 20:00:15;;;;;;;7.18;3.03;;;21.90;47.70;;;;;;5000900;28;20034;-70
2022/02/08 20:02:46;;;;;;;9.02;3.75;;;22.00;47.80;;;;;;5002471;28;20504;-69
2022/02/08 20:05:14;;;;;;;9.55;4.55;;;21.90;47.80;;;;;;5002987;28;20037;-70
2022/02/08 20:07:40;;;;;;;12.57;6.05;;;21.90;47.80;;;;;;5003518;28;20706;-66
2022/02/08 20:10:07;;;;;;;14.40;6.25;;;21.90;47.80;;;;;;4999634;28;20038;-69
2022/02/08 20:12:32;;;;;;;15.20;6.55;;;21.90;47.80;;;;;;4998564;28;20044;-70
2022/02/08 20:14:58;;;;;;;18.60;8.35;;;21.90;47.80;;;;;;4997586;28;20041;-70
2022/02/08 20:17:23;;;;;;;21.95;9.68;;;21.90;48.00;;;;;;5000953;28;20032;-69
2022/02/08 20:19:52;;;;;;;24.30;10.90;;;21.90;48.50;;;;;;5001392;28;20045;-71
2022/02/08 20:22:19;;;;;;;26.80;12.68;;;21.90;48.00;;;;;;5003295;28;20053;-72
2022/02/08 20:24:47;;;;;;;27.55;12.15;;;22.00;48.00;;;;;;5002114;28;20553;-72
2022/02/08 20:29:45;;;;;;;26.80;11.60;;;22.00;48.00;;;;;;5004700;28;20037;-71
2022/02/08 20:32:11;;;;;;;24.65;11.48;;;22.00;48.00;;;;;;5006559;28;20117;-72
2022/02/08 20:34:36;;;;;;;28.02;12.88;;;22.00;48.00;;;;;;5005153;28;20081;-71
2022/02/08 20:37:02;;;;;;;32.40;12.00;;;22.00;48.00;;;;;;5004310;28;20029;-67
2022/02/08 20:39:30;;;;;;;25.00;11.30;;;22.00;48.60;;;;;;4992962;28;20060;-70
2022/02/08 20:41:56;;;;;;;27.27;11.95;;;22.00;48.10;;;;;;5004644;28;20173;-70
2022/02/08 20:44:23;;;;;;;25.63;11.52;;;22.00;48.10;;;;;;5001967;28;20041;-71
2022/02/08 20:46:54;;;;;;;22.95;10.95;;;22.00;48.10;;;;;;5008555;28;20084;-72
2022/02/08 20:49:19;;;;;;;22.70;10.35;;;22.00;48.30;;;;;;5003597;28;20029;-71
2022/02/08 20:51:46;;;;;;;22.88;10.38;;;22.10;48.20;;;;;;5005931;28;20029;-71
2022/02/08 20:54:15;;;;;;;21.45;9.48;;;22.00;48.30;;;;;;5001483;28;20022;-71
2022/02/08 20:56:49;;;;;;;20.45;9.70;;;22.00;48.30;;;;;;5005049;28;20029;-72
2022/02/08 20:59:15;;;;;;;20.67;9.48;;;22.10;48.40;;;;;;5000197;28;20033;-72
2022/02/08 21:01:44;;;;;;;21.70;9.35;;;22.10;48.40;;;;;;4999166;28;20608;-72
2022/02/08 21:04:27;;;;;;;21.55;9.55;;;22.10;48.40;;;;;;5005954;28;20057;-70
2022/02/08 21:06:55;;;;;;;18.20;9.15;;;22.10;48.30;;;;;;5005001;28;20107;-70
2022/02/08 21:09:22;;;;;;;20.92;9.90;;;22.10;48.30;;;;;;5002360;28;20041;-71
2022/02/08 21:11:55;;;;;;;19.48;9.77;;;22.10;48.30;;;;;;5001309;28;20057;-70
2022/02/08 21:14:21;;;;;;;20.40;9.27;;;22.10;48.30;;;;;;5001788;28;20116;-70
2022/02/08 21:16:50;;;;;;;20.92;10.05;;;22.20;48.30;;;;;;5003734;28;20108;-71
2022/02/08 21:19:21;;;;;;;21.13;9.80;;;22.10;48.30;;;;;;4997420;28;20022;-70
2022/02/08 21:21:48;;;;;;;17.70;8.25;;;22.20;48.30;;;;;;5002112;28;20034;-72
2022/02/08 21:24:14;;;;;;;18.27;9.02;;;22.20;48.30;;;;;;5003825;28;20021;-73
2022/02/08 21:26:45;;;;;;;18.92;9.32;;;22.20;48.30;;;;;;5002048;28;20031;-72